Caroline, Canada
Current Conditions -  °F | °C
As of 2:00 PM on Saturday 22 Nov 2014 (Local Time) from CYQF Reporting Station
Overcast Overcast  
Wind Chill: 25°   Ceiling: 8200
Heat Index: 36°   Visibility: 15mi
Dew Point: 28°   Wind: 20mph
Humidity: 75%   Direction: 330°NNW
Pressure: 29.23"   Gusts: 29mph
Location:  52.08°N, 114.75°W
Report Text: CYQF 222100Z 33017G25KT 15SM SCT020 OVC082 02/M02 A2923 RMK SC3AC5 SLP931
Loading
Personal Weather Stations






























Interactive Weather Map New forecast layout! Learn more

10-Day Weather Forecast

Advertisements
Track Severe Weather on mobile